Portada
METAR-TAF:

METAR-TAF

Aeroports :

Recife, Pernambuco, Brasil

latitud: 08-08S, longitud: 034-55W, altitud: 19 m

Observació

L'informe es va fer fa 13 minuts, a les 05:00 UTC
Vent 8 kt del Est
Temperatura 27°C
Humitat 74%
Pressió 1011 hPa
Visibilitat 10 km o més
Núvols disperses a una alçada de 2000 ft

METAR: SBRF 150500Z 10008KT 9999 SCT020 27/22 Q1011

Hora: 02:13 (05:13 UTC)

Pronòstic

L'informe es va fer fa 7 hores i 13 minuts, a les 22:00 UTC
Pronòstic vàlid del 15 a les 00 UTC al 15 a les 24 UTC
Vent 8 kt del Sud-Est
Visibilitat: 8000 m
Núvols disperses a una alçada de 2300 ft
Evolucionant progressivament
l' 15 a les 12 UTC al 15 a les 14 UTC
Vent 8 kt del Sud/Sud-Est
Núvols disperses a una alçada de 2400 ft
Evolucionant progressivament
l' 15 a les 20 UTC al 15 a les 22 UTC
Escasses núvols a una alçada de 2500 ft

TAF: SBRF 142200Z 1500/1524 14008KT 8000 SCT023 TN26/1508Z TX30/1517Z BECMG 1512/1514 15008KT SCT024 BECMG 1520/1522 FEW025 RMK PAY

Observacions i pronòstics meteorològics de més de 4000 aeroports (METAR i TAF).

Les estacions disponibles són els punts grocs i vermells al mapa.

Posi el ratolí al punt desitjat per veure el nom de l'estació.

Feu clic per veure les observacions i els pronòstics meteorològics.

Per canviar el mapa: feu clic els botons verds amb una creu de color negre per apropar; al botó verd amb un guió per allunyar la imatge; o en les fletxes verdes per a mapes adjacents.


METAR-TAF: